sensor_id;sensor_type;location;lat;lon;timestamp;pressure;altitude;pressure_sealevel;temperature;humidity
51928;BME280;37953;52.806;18.270;2023-06-22T00:01:02;100816.38;;;22.32;100.00
51928;BME280;37953;52.806;18.270;2023-06-22T00:03:38;100817.16;;;22.34;100.00
51928;BME280;37953;52.806;18.270;2023-06-22T00:06:04;100819.88;;;22.32;100.00
51928;BME280;37953;52.806;18.270;2023-06-22T00:08:30;100821.66;;;22.32;100.00
51928;BME280;37953;52.806;18.270;2023-06-22T00:10:56;100811.25;;;22.27;100.00
51928;BME280;37953;52.806;18.270;2023-06-22T00:13:22;100819.06;;;22.30;100.00
51928;BME280;37953;52.806;18.270;2023-06-22T00:15:48;100822.66;;;22.29;100.00
51928;BME280;37953;52.806;18.270;2023-06-22T00:18:13;100828.75;;;22.31;100.00
51928;BME280;37953;52.806;18.270;2023-06-22T00:20:40;100839.34;;;22.31;100.00
51928;BME280;37953;52.806;18.270;2023-06-22T00:23:06;100831.44;;;22.30;100.00
51928;BME280;37953;52.806;18.270;2023-06-22T00:25:36;100833.09;;;22.32;100.00
51928;BME280;37953;52.806;18.270;2023-06-22T00:28:05;100835.69;;;22.34;100.00
51928;BME280;37953;52.806;18.270;2023-06-22T00:30:39;100836.50;;;22.36;100.00
51928;BME280;37953;52.806;18.270;2023-06-22T00:33:05;100844.50;;;22.34;100.00
51928;BME280;37953;52.806;18.270;2023-06-22T00:35:33;100848.94;;;22.34;100.00
51928;BME280;37953;52.806;18.270;2023-06-22T00:38:00;100845.63;;;22.29;100.00
51928;BME280;37953;52.806;18.270;2023-06-22T00:40:27;100842.78;;;22.33;100.00
51928;BME280;37953;52.806;18.270;2023-06-22T00:42:54;100840.13;;;22.33;100.00
51928;BME280;37953;52.806;18.270;2023-06-22T00:45:22;100839.19;;;22.34;100.00
51928;BME280;37953;52.806;18.270;2023-06-22T00:47:53;100844.50;;;22.34;100.00
51928;BME280;37953;52.806;18.270;2023-06-22T00:50:24;100849.78;;;22.34;100.00
51928;BME280;37953;52.806;18.270;2023-06-22T00:52:55;100843.63;;;22.34;100.00
51928;BME280;37953;52.806;18.270;2023-06-22T00:55:23;100844.53;;;22.33;100.00
51928;BME280;37953;52.806;18.270;2023-06-22T00:57:49;100842.84;;;22.32;100.00
51928;BME280;37953;52.806;18.270;2023-06-22T01:00:18;100845.53;;;22.30;100.00
51928;BME280;37953;52.806;18.270;2023-06-22T01:02:46;100844.69;;;22.30;100.00
51928;BME280;37953;52.806;18.270;2023-06-22T01:05:21;100841.22;;;22.28;100.00
51928;BME280;37953;52.806;18.270;2023-06-22T01:10:25;100828.94;;;22.27;100.00
51928;BME280;37953;52.806;18.270;2023-06-22T01:12:56;100823.69;;;22.25;100.00
51928;BME280;37953;52.806;18.270;2023-06-22T01:15:41;100825.41;;;22.26;100.00
51928;BME280;37953;52.806;18.270;2023-06-22T01:18:12;100815.84;;;22.22;100.00
51928;BME280;37953;52.806;18.270;2023-06-22T01:20:40;100816.88;;;22.18;100.00
51928;BME280;37953;52.806;18.270;2023-06-22T01:23:27;100823.75;;;22.24;100.00
51928;BME280;37953;52.806;18.270;2023-06-22T01:28:59;100824.00;;;22.16;100.00
51928;BME280;37953;52.806;18.270;2023-06-22T01:31:27;100825.09;;;22.12;100.00
51928;BME280;37953;52.806;18.270;2023-06-22T01:34:02;100818.06;;;22.11;100.00
51928;BME280;37953;52.806;18.270;2023-06-22T01:36:30;100827.84;;;22.09;100.00
51928;BME280;37953;52.806;18.270;2023-06-22T01:39:02;100827.97;;;22.06;100.00
51928;BME280;37953;52.806;18.270;2023-06-22T01:41:35;100834.06;;;22.08;100.00
51928;BME280;37953;52.806;18.270;2023-06-22T01:44:04;100835.97;;;22.04;100.00
51928;BME280;37953;52.806;18.270;2023-06-22T01:46:36;100830.84;;;22.00;100.00
51928;BME280;37953;52.806;18.270;2023-06-22T01:49:03;100826.47;;;21.99;100.00
51928;BME280;37953;52.806;18.270;2023-06-22T01:51:30;100826.59;;;21.95;100.00
51928;BME280;37953;52.806;18.270;2023-06-22T01:53:56;100824.16;;;21.91;100.00
51928;BME280;37953;52.806;18.270;2023-06-22T01:56:22;100819.88;;;21.87;100.00
51928;BME280;37953;52.806;18.270;2023-06-22T01:58:52;100835.75;;;21.87;100.00
51928;BME280;37953;52.806;18.270;2023-06-22T02:01:54;100839.25;;;21.87;100.00
51928;BME280;37953;52.806;18.270;2023-06-22T02:04:25;100837.66;;;21.83;100.00
51928;BME280;37953;52.806;18.270;2023-06-22T02:06:56;100836.97;;;21.78;100.00
51928;BME280;37953;52.806;18.270;2023-06-22T02:09:23;100837.88;;;21.77;100.00
51928;BME280;37953;52.806;18.270;2023-06-22T02:11:52;100833.56;;;21.74;100.00
51928;BME280;37953;52.806;18.270;2023-06-22T02:14:22;100843.41;;;21.71;100.00
51928;BME280;37953;52.806;18.270;2023-06-22T02:16:50;100844.44;;;21.67;100.00
51928;BME280;37953;52.806;18.270;2023-06-22T02:19:16;100838.41;;;21.63;100.00
51928;BME280;37953;52.806;18.270;2023-06-22T02:21:48;100842.78;;;21.64;100.00
51928;BME280;37953;52.806;18.270;2023-06-22T02:24:14;100846.44;;;21.60;100.00
51928;BME280;37953;52.806;18.270;2023-06-22T02:26:40;100853.56;;;21.58;100.00
51928;BME280;37953;52.806;18.270;2023-06-22T02:29:08;100855.44;;;21.54;100.00
51928;BME280;37953;52.806;18.270;2023-06-22T02:31:34;100851.19;;;21.50;100.00
51928;BME280;37953;52.806;18.270;2023-06-22T02:34:00;100860.19;;;21.46;100.00
51928;BME280;37953;52.806;18.270;2023-06-22T02:36:26;100864.66;;;21.44;100.00
51928;BME280;37953;52.806;18.270;2023-06-22T02:38:56;100864.66;;;21.44;100.00
51928;BME280;37953;52.806;18.270;2023-06-22T02:41:29;100868.25;;;21.42;100.00
51928;BME280;37953;52.806;18.270;2023-06-22T02:43:55;100871.81;;;21.41;100.00
51928;BME280;37953;52.806;18.270;2023-06-22T02:46:21;100869.25;;;21.38;100.00
51928;BME280;37953;52.806;18.270;2023-06-22T02:48:47;100872.81;;;21.37;100.00
51928;BME280;37953;52.806;18.270;2023-06-22T02:51:13;100877.31;;;21.34;100.00
51928;BME280;37953;52.806;18.270;2023-06-22T02:53:40;100877.31;;;21.34;100.00
51928;BME280;37953;52.806;18.270;2023-06-22T02:56:10;100877.31;;;21.34;100.00
51928;BME280;37953;52.806;18.270;2023-06-22T02:58:36;100875.72;;;21.29;100.00
51928;BME280;37953;52.806;18.270;2023-06-22T03:01:06;100881.00;;;21.29;100.00
51928;BME280;37953;52.806;18.270;2023-06-22T03:03:32;100882.75;;;21.30;100.00
51928;BME280;37953;52.806;18.270;2023-06-22T03:05:58;100885.50;;;21.27;100.00
51928;BME280;37953;52.806;18.270;2023-06-22T03:08:26;100882.97;;;21.24;100.00
51928;BME280;37953;52.806;18.270;2023-06-22T03:10:52;100889.16;;;21.23;100.00
51928;BME280;37953;52.806;18.270;2023-06-22T03:13:18;100892.78;;;21.20;100.00
51928;BME280;37953;52.806;18.270;2023-06-22T03:15:44;100888.41;;;21.19;100.00
51928;BME280;37953;52.806;18.270;2023-06-22T03:18:11;100891.97;;;21.18;100.00
51928;BME280;37953;52.806;18.270;2023-06-22T03:20:37;100892.06;;;21.15;100.00
51928;BME280;37953;52.806;18.270;2023-06-22T03:23:03;100886.16;;;21.08;100.00
51928;BME280;37953;52.806;18.270;2023-06-22T03:25:36;100893.91;;;21.13;100.00
51928;BME280;37953;52.806;18.270;2023-06-22T03:28:02;100892.38;;;21.06;100.00
51928;BME280;37953;52.806;18.270;2023-06-22T03:30:28;100893.19;;;21.08;100.00
51928;BME280;37953;52.806;18.270;2023-06-22T03:32:54;100902.03;;;21.07;100.00
51928;BME280;37953;52.806;18.270;2023-06-22T03:35:20;100914.44;;;21.05;100.00
51928;BME280;37953;52.806;18.270;2023-06-22T03:37:47;100908.38;;;21.01;100.00
51928;BME280;37953;52.806;18.270;2023-06-22T03:40:13;100907.56;;;20.99;100.00
51928;BME280;37953;52.806;18.270;2023-06-22T03:42:39;100912.00;;;20.99;100.00
51928;BME280;37953;52.806;18.270;2023-06-22T03:45:05;100920.94;;;20.94;100.00
51928;BME280;37953;52.806;18.270;2023-06-22T03:47:32;100924.44;;;20.95;100.00
51928;BME280;37953;52.806;18.270;2023-06-22T03:49:58;100923.56;;;20.94;100.00
51928;BME280;37953;52.806;18.270;2023-06-22T03:52:23;100926.19;;;20.96;100.00
51928;BME280;37953;52.806;18.270;2023-06-22T03:54:51;100925.38;;;20.94;100.00
51928;BME280;37953;52.806;18.270;2023-06-22T03:57:16;100919.16;;;20.95;100.00
51928;BME280;37953;52.806;18.270;2023-06-22T03:59:42;100921.78;;;20.95;100.00
51928;BME280;37953;52.806;18.270;2023-06-22T04:02:08;100918.25;;;20.96;100.00
51928;BME280;37953;52.806;18.270;2023-06-22T04:04:35;100921.75;;;20.97;100.00
51928;BME280;37953;52.806;18.270;2023-06-22T04:07:01;100918.25;;;20.96;100.00
51928;BME280;37953;52.806;18.270;2023-06-22T04:09:27;100920.91;;;20.96;100.00
51928;BME280;37953;52.806;18.270;2023-06-22T04:11:52;100921.75;;;20.97;100.00
51928;BME280;37953;52.806;18.270;2023-06-22T04:14:19;100928.78;;;20.98;100.00
51928;BME280;37953;52.806;18.270;2023-06-22T04:16:45;100921.75;;;20.97;100.00
51928;BME280;37953;52.806;18.270;2023-06-22T04:19:11;100925.31;;;20.96;100.00
51928;BME280;37953;52.806;18.270;2023-06-22T04:21:44;100928.28;;;21.11;100.00
51928;BME280;37953;52.806;18.270;2023-06-22T04:24:14;100926.88;;;21.01;100.00
51928;BME280;37953;52.806;18.270;2023-06-22T04:26:40;100924.38;;;20.97;100.00
51928;BME280;37953;52.806;18.270;2023-06-22T04:29:12;100932.31;;;20.97;100.00
51928;BME280;37953;52.806;18.270;2023-06-22T04:31:38;100933.25;;;20.96;100.00
51928;BME280;37953;52.806;18.270;2023-06-22T04:34:06;100932.34;;;20.95;100.00
51928;BME280;37953;52.806;18.270;2023-06-22T04:36:38;100921.78;;;20.95;100.00
51928;BME280;37953;52.806;18.270;2023-06-22T04:39:08;100924.34;;;20.98;100.00
51928;BME280;37953;52.806;18.270;2023-06-22T04:41:39;100927.03;;;20.97;100.00
51928;BME280;37953;52.806;18.270;2023-06-22T04:44:12;100927.00;;;20.98;100.00
51928;BME280;37953;52.806;18.270;2023-06-22T04:46:39;100930.53;;;20.97;100.00
51928;BME280;37953;52.806;18.270;2023-06-22T04:49:09;100938.53;;;20.96;100.00
51928;BME280;37953;52.806;18.270;2023-06-22T04:51:44;100928.66;;;21.01;100.00
51928;BME280;37953;52.806;18.270;2023-06-22T04:54:10;100930.44;;;21.00;100.00
51928;BME280;37953;52.806;18.270;2023-06-22T04:56:36;100926.03;;;21.01;100.00
51928;BME280;37953;52.806;18.270;2023-06-22T04:59:02;100931.25;;;21.02;100.00
51928;BME280;37953;52.806;18.270;2023-06-22T05:01:31;100928.63;;;21.02;100.00
51928;BME280;37953;52.806;18.270;2023-06-22T05:03:57;100930.31;;;21.03;100.00
51928;BME280;37953;52.806;18.270;2023-06-22T05:06:27;100927.69;;;21.03;100.00
51928;BME280;37953;52.806;18.270;2023-06-22T05:08:59;100926.78;;;21.04;100.00
51928;BME280;37953;52.806;18.270;2023-06-22T05:11:28;100926.72;;;21.06;100.00
51928;BME280;37953;52.806;18.270;2023-06-22T05:13:55;100931.16;;;21.05;100.00
51928;BME280;37953;52.806;18.270;2023-06-22T05:16:22;100941.63;;;21.08;100.00
51928;BME280;37953;52.806;18.270;2023-06-22T05:18:56;100941.56;;;21.10;100.00
51928;BME280;37953;52.806;18.270;2023-06-22T05:21:23;100952.13;;;21.10;100.00
51928;BME280;37953;52.806;18.270;2023-06-22T05:23:53;100941.50;;;21.11;100.00
51928;BME280;37953;52.806;18.270;2023-06-22T05:26:30;100954.63;;;21.14;100.00
51928;BME280;37953;52.806;18.270;2023-06-22T05:28:57;100961.63;;;21.15;100.00
51928;BME280;37953;52.806;18.270;2023-06-22T05:31:23;100963.34;;;21.17;100.00
51928;BME280;37953;52.806;18.270;2023-06-22T05:33:52;100968.53;;;21.20;100.00
51928;BME280;37953;52.806;18.270;2023-06-22T05:36:18;100963.22;;;21.21;100.00
51928;BME280;37953;52.806;18.270;2023-06-22T05:39:14;100966.59;;;21.25;100.00
51928;BME280;37953;52.806;18.270;2023-06-22T05:41:41;100955.16;;;21.24;100.00
51928;BME280;37953;52.806;18.270;2023-06-22T05:44:07;100970.97;;;21.26;100.00
51928;BME280;37953;52.806;18.270;2023-06-22T05:46:33;100978.94;;;21.24;100.00
51928;BME280;37953;52.806;18.270;2023-06-22T05:48:59;100975.34;;;21.27;100.00
51928;BME280;37953;52.806;18.270;2023-06-22T05:51:33;100978.06;;;21.25;100.00
51928;BME280;37953;52.806;18.270;2023-06-22T05:53:59;100984.06;;;21.29;100.00
51928;BME280;37953;52.806;18.270;2023-06-22T05:56:25;100985.81;;;21.30;100.00
51928;BME280;37953;52.806;18.270;2023-06-22T05:58:54;100983.13;;;21.31;100.00
51928;BME280;37953;52.806;18.270;2023-06-22T06:01:25;100977.88;;;21.30;100.00
51928;BME280;37953;52.806;18.270;2023-06-22T06:03:52;100975.13;;;21.33;100.00
51928;BME280;37953;52.806;18.270;2023-06-22T06:06:19;100975.94;;;21.35;100.00
51928;BME280;37953;52.806;18.270;2023-06-22T06:08:55;100965.31;;;21.37;100.00
51928;BME280;37953;52.806;18.270;2023-06-22T06:11:21;100974.06;;;21.39;100.00
51928;BME280;37953;52.806;18.270;2023-06-22T06:13:48;100978.38;;;21.41;100.00
51928;BME280;37953;52.806;18.270;2023-06-22T06:16:14;100973.09;;;21.43;100.00
51928;BME280;37953;52.806;18.270;2023-06-22T06:18:40;100971.25;;;21.45;100.00
51928;BME280;37953;52.806;18.270;2023-06-22T06:21:08;100965.03;;;21.46;100.00
51928;BME280;37953;52.806;18.270;2023-06-22T06:23:37;100969.41;;;21.47;100.00
51928;BME280;37953;52.806;18.270;2023-06-22T06:26:03;100964.22;;;21.44;100.00
51928;BME280;37953;52.806;18.270;2023-06-22T06:28:33;100972.91;;;21.47;100.00
51928;BME280;37953;52.806;18.270;2023-06-22T06:30:59;100972.03;;;21.48;100.00
51928;BME280;37953;52.806;18.270;2023-06-22T06:33:25;100972.78;;;21.50;100.00
51928;BME280;37953;52.806;18.270;2023-06-22T06:35:51;100965.75;;;21.51;100.00
51928;BME280;37953;52.806;18.270;2023-06-22T06:38:21;100961.28;;;21.53;100.00
51928;BME280;37953;52.806;18.270;2023-06-22T06:40:47;100969.13;;;21.54;100.00
51928;BME280;37953;52.806;18.270;2023-06-22T06:43:17;100954.16;;;21.55;100.00
51928;BME280;37953;52.806;18.270;2023-06-22T06:45:46;100962.00;;;21.57;100.00
51928;BME280;37953;52.806;18.270;2023-06-22T06:48:12;100973.47;;;21.57;100.00
51928;BME280;37953;52.806;18.270;2023-06-22T06:50:41;100980.44;;;21.60;100.00
51928;BME280;37953;52.806;18.270;2023-06-22T06:53:10;100971.53;;;21.62;100.00
51928;BME280;37953;52.806;18.270;2023-06-22T06:55:41;100968.03;;;21.62;100.00
51928;BME280;37953;52.806;18.270;2023-06-22T06:58:17;100960.09;;;21.62;100.00
51928;BME280;37953;52.806;18.270;2023-06-22T07:00:46;100961.72;;;21.66;100.00
51928;BME280;37953;52.806;18.270;2023-06-22T07:03:15;100966.88;;;21.69;100.00
51928;BME280;37953;52.806;18.270;2023-06-22T07:05:47;100970.38;;;21.69;100.00
51928;BME280;37953;52.806;18.270;2023-06-22T07:08:14;100965.91;;;21.71;100.00
51928;BME280;37953;52.806;18.270;2023-06-22T07:10:40;100959.75;;;21.71;100.00
51928;BME280;37953;52.806;18.270;2023-06-22T07:13:06;100967.63;;;21.72;100.00
51928;BME280;37953;52.806;18.270;2023-06-22T07:15:37;100966.66;;;21.75;100.00
51928;BME280;37953;52.806;18.270;2023-06-22T07:18:04;100970.97;;;21.78;100.00
51928;BME280;37953;52.806;18.270;2023-06-22T07:20:32;100976.16;;;21.81;100.00
51928;BME280;37953;52.806;18.270;2023-06-22T07:22:59;100969.03;;;21.83;100.00
51928;BME280;37953;52.806;18.270;2023-06-22T07:25:28;100974.19;;;21.86;100.00
51928;BME280;37953;52.806;18.270;2023-06-22T07:30:26;100972.28;;;21.91;100.00
51928;BME280;37953;52.806;18.270;2023-06-22T07:32:56;100970.66;;;21.87;100.00
51928;BME280;37953;52.806;18.270;2023-06-22T07:35:23;100973.94;;;21.93;100.00
51928;BME280;37953;52.806;18.270;2023-06-22T07:37:50;100981.75;;;21.96;100.00
51928;BME280;37953;52.806;18.270;2023-06-22T07:40:16;100980.72;;;22.01;100.00
51928;BME280;37953;52.806;18.270;2023-06-22T07:42:42;100983.38;;;22.01;100.00
51928;BME280;37953;52.806;18.270;2023-06-22T07:45:08;100985.97;;;22.02;100.00
51928;BME280;37953;52.806;18.270;2023-06-22T07:47:35;100984.06;;;22.06;100.00
51928;BME280;37953;52.806;18.270;2023-06-22T07:50:03;100984.88;;;22.08;100.00
51928;BME280;37953;52.806;18.270;2023-06-22T07:52:30;100990.91;;;22.11;100.00
51928;BME280;37953;52.806;18.270;2023-06-22T07:54:59;100987.31;;;22.14;100.00
51928;BME280;37953;52.806;18.270;2023-06-22T07:57:28;100987.13;;;22.19;100.00
51928;BME280;37953;52.806;18.270;2023-06-22T08:00:04;100980.84;;;22.21;100.00
51928;BME280;37953;52.806;18.270;2023-06-22T08:02:53;100983.34;;;22.26;100.00
51928;BME280;37953;52.806;18.270;2023-06-22T08:05:19;100991.25;;;22.27;100.00
51928;BME280;37953;52.806;18.270;2023-06-22T08:07:45;100993.88;;;22.27;100.00
51928;BME280;37953;52.806;18.270;2023-06-22T08:10:12;100990.31;;;22.28;100.00
51928;BME280;37953;52.806;18.270;2023-06-22T08:12:51;100995.50;;;22.31;100.00
51928;BME280;37953;52.806;18.270;2023-06-22T08:15:18;100991.00;;;22.33;100.00
51928;BME280;37953;52.806;18.270;2023-06-22T08:17:47;100988.38;;;22.33;100.00
51928;BME280;37953;52.806;18.270;2023-06-22T08:20:16;100997.84;;;22.39;100.00
51928;BME280;37953;52.806;18.270;2023-06-22T08:22:46;101008.38;;;22.41;100.00
51928;BME280;37953;52.806;18.270;2023-06-22T08:25:12;100996.06;;;22.40;100.00
51928;BME280;37953;52.806;18.270;2023-06-22T08:27:45;101013.44;;;22.47;100.00
51928;BME280;37953;52.806;18.270;2023-06-22T08:30:13;101004.50;;;22.49;100.00
51928;BME280;37953;52.806;18.270;2023-06-22T08:32:39;101002.63;;;22.53;100.00
51928;BME280;37953;52.806;18.270;2023-06-22T08:35:06;100993.81;;;22.52;100.00
51928;BME280;37953;52.806;18.270;2023-06-22T08:37:38;101002.38;;;22.59;100.00
51928;BME280;37953;52.806;18.270;2023-06-22T08:40:06;101002.34;;;22.61;100.00
51928;BME280;37953;52.806;18.270;2023-06-22T08:42:40;100995.97;;;22.65;100.00
51928;BME280;37953;52.806;18.270;2023-06-22T08:45:09;100994.94;;;22.69;100.00
51928;BME280;37953;52.806;18.270;2023-06-22T08:47:35;100999.31;;;22.70;100.00
51928;BME280;37953;52.806;18.270;2023-06-22T08:50:02;100999.94;;;22.76;100.00
51928;BME280;37953;52.806;18.270;2023-06-22T08:52:31;100999.03;;;22.77;100.00
51928;BME280;37953;52.806;18.270;2023-06-22T08:54:58;100995.31;;;22.82;100.00
51928;BME280;37953;52.806;18.270;2023-06-22T08:57:24;101006.59;;;22.87;100.00
51928;BME280;37953;52.806;18.270;2023-06-22T08:59:50;100992.41;;;22.88;100.00
51928;BME280;37953;52.806;18.270;2023-06-22T09:02:18;100991.38;;;22.92;100.00
51928;BME280;37953;52.806;18.270;2023-06-22T09:04:57;100999.16;;;22.96;100.00
51928;BME280;37953;52.806;18.270;2023-06-22T09:07:24;101002.53;;;23.00;100.00
51928;BME280;37953;52.806;18.270;2023-06-22T09:09:51;100992.69;;;23.04;99.48
51928;BME280;37953;52.806;18.270;2023-06-22T09:12:19;100993.38;;;23.09;100.00
51928;BME280;37953;52.806;18.270;2023-06-22T09:14:46;100996.75;;;23.12;100.00
51928;BME280;37953;52.806;18.270;2023-06-22T09:17:13;100996.63;;;23.15;97.20
51928;BME280;37953;52.806;18.270;2023-06-22T09:19:39;100994.75;;;23.17;91.43
51928;BME280;37953;52.806;18.270;2023-06-22T09:22:08;100994.59;;;23.22;90.56
51928;BME280;37953;52.806;18.270;2023-06-22T09:24:37;100991.75;;;23.27;90.16
51928;BME280;37953;52.806;18.270;2023-06-22T09:27:06;100996.00;;;23.31;89.54
51928;BME280;37953;52.806;18.270;2023-06-22T09:29:38;100982.53;;;23.35;92.31
51928;BME280;37953;52.806;18.270;2023-06-22T09:32:10;100986.78;;;23.40;92.01
51928;BME280;37953;52.806;18.270;2023-06-22T09:34:42;100983.13;;;23.42;88.06
51928;BME280;37953;52.806;18.270;2023-06-22T09:37:12;100975.94;;;23.46;89.84
51928;BME280;37953;52.806;18.270;2023-06-22T09:39:38;100969.56;;;23.50;91.65
51928;BME280;37953;52.806;18.270;2023-06-22T09:42:04;100969.38;;;23.54;90.08
51928;BME280;37953;52.806;18.270;2023-06-22T09:44:37;100973.56;;;23.60;87.89
51928;BME280;37953;52.806;18.270;2023-06-22T09:47:17;100969.03;;;23.62;88.73
51928;BME280;37953;52.806;18.270;2023-06-22T09:49:43;100972.41;;;23.66;86.22
51928;BME280;37953;52.806;18.270;2023-06-22T09:52:09;100963.44;;;23.68;87.65
51928;BME280;37953;52.806;18.270;2023-06-22T09:54:44;100971.28;;;23.71;84.71
51928;BME280;37953;52.806;18.270;2023-06-22T09:57:10;100973.75;;;23.76;84.88
51928;BME280;37953;52.806;18.270;2023-06-22T09:59:38;100978.00;;;23.80;87.31
51928;BME280;37953;52.806;18.270;2023-06-22T10:02:06;100974.41;;;23.81;82.04
51928;BME280;37953;52.806;18.270;2023-06-22T10:04:33;100976.88;;;23.86;80.98
51928;BME280;37953;52.806;18.270;2023-06-22T10:07:00;100974.00;;;23.90;85.23
51928;BME280;37953;52.806;18.270;2023-06-22T10:09:26;100973.00;;;23.93;82.00
51928;BME280;37953;52.806;18.270;2023-06-22T10:11:53;100958.72;;;23.95;78.74
51928;BME280;37953;52.806;18.270;2023-06-22T10:14:26;100956.75;;;24.01;83.26
51928;BME280;37953;52.806;18.270;2023-06-22T10:16:58;100953.03;;;24.05;83.95
51928;BME280;37953;52.806;18.270;2023-06-22T10:19:27;100943.09;;;24.08;83.29
51928;BME280;37953;52.806;18.270;2023-06-22T10:21:55;100949.13;;;24.12;84.76
51928;BME280;37953;52.806;18.270;2023-06-22T10:24:21;100948.00;;;24.17;84.82
51928;BME280;37953;52.806;18.270;2023-06-22T10:26:48;100953.16;;;24.21;84.79
51928;BME280;37953;52.806;18.270;2023-06-22T10:29:14;100948.78;;;24.20;79.77
51928;BME280;37953;52.806;18.270;2023-06-22T10:31:40;100946.78;;;24.25;81.51
51928;BME280;37953;52.806;18.270;2023-06-22T10:34:08;100947.50;;;24.28;78.65
51928;BME280;37953;52.806;18.270;2023-06-22T10:36:35;100944.75;;;24.30;76.71
51928;BME280;37953;52.806;18.270;2023-06-22T10:39:01;100953.50;;;24.32;74.07
51928;BME280;37953;52.806;18.270;2023-06-22T10:41:28;100946.28;;;24.35;76.95
51928;BME280;37953;52.806;18.270;2023-06-22T10:43:58;100946.16;;;24.38;78.25
51928;BME280;37953;52.806;18.270;2023-06-22T10:46:25;100938.81;;;24.44;76.50
51928;BME280;37953;52.806;18.270;2023-06-22T10:48:56;100940.34;;;24.49;78.80
51928;BME280;37953;52.806;18.270;2023-06-22T10:51:25;100930.56;;;24.50;78.97
51928;BME280;37953;52.806;18.270;2023-06-22T10:53:51;100936.63;;;24.53;78.80
51928;BME280;37953;52.806;18.270;2023-06-22T10:56:18;100934.59;;;24.58;81.57
51928;BME280;37953;52.806;18.270;2023-06-22T10:58:45;100936.22;;;24.61;80.58
51928;BME280;37953;52.806;18.270;2023-06-22T11:01:12;100929.81;;;24.65;81.20
51928;BME280;37953;52.806;18.270;2023-06-22T11:03:41;100930.38;;;24.72;81.74
51928;BME280;37953;52.806;18.270;2023-06-22T11:06:13;100938.16;;;24.76;80.46
51928;BME280;37953;52.806;18.270;2023-06-22T11:08:44;100932.69;;;24.79;78.43
51928;BME280;37953;52.806;18.270;2023-06-22T11:11:19;100928.94;;;24.84;75.97
51928;BME280;37953;52.806;18.270;2023-06-22T11:13:53;100937.53;;;24.89;77.13
51928;BME280;37953;52.806;18.270;2023-06-22T11:16:20;100936.38;;;24.94;78.89
51928;BME280;37953;52.806;18.270;2023-06-22T11:18:55;100933.53;;;24.97;77.02
51928;BME280;37953;52.806;18.270;2023-06-22T11:21:32;100936.91;;;25.01;77.31
51928;BME280;37953;52.806;18.270;2023-06-22T11:24:02;100932.31;;;25.05;75.23
51928;BME280;37953;52.806;18.270;2023-06-22T11:26:30;100933.03;;;25.08;74.89
51928;BME280;37953;52.806;18.270;2023-06-22T11:29:00;100932.78;;;25.13;76.26
51928;BME280;37953;52.806;18.270;2023-06-22T11:31:39;100930.75;;;25.18;76.90
51928;BME280;37953;52.806;18.270;2023-06-22T11:34:23;100941.28;;;25.21;73.95
51928;BME280;37953;52.806;18.270;2023-06-22T11:36:58;100937.75;;;25.21;68.35
51928;BME280;37953;52.806;18.270;2023-06-22T11:39:34;100935.78;;;25.24;70.97
51928;BME280;37953;52.806;18.270;2023-06-22T11:42:01;100928.44;;;25.29;71.21
51928;BME280;37953;52.806;18.270;2023-06-22T11:44:30;100924.78;;;25.32;74.38
51928;BME280;37953;52.806;18.270;2023-06-22T11:46:59;100927.97;;;25.38;77.68
51928;BME280;37953;52.806;18.270;2023-06-22T11:49:29;100927.72;;;25.43;75.36
51928;BME280;37953;52.806;18.270;2023-06-22T11:52:01;100927.41;;;25.49;67.71
51928;BME280;37953;52.806;18.270;2023-06-22T11:54:33;100924.50;;;25.54;67.13
51928;BME280;37953;52.806;18.270;2023-06-22T11:57:03;100927.88;;;25.57;67.50
51928;BME280;37953;52.806;18.270;2023-06-22T11:59:32;100920.50;;;25.63;67.99
51928;BME280;37953;52.806;18.270;2023-06-22T12:02:07;100913.03;;;25.69;66.61
51928;BME280;37953;52.806;18.270;2023-06-22T12:04:42;100910.91;;;25.76;67.50
51928;BME280;37953;52.806;18.270;2023-06-22T12:07:10;100903.53;;;25.81;66.46
51928;BME280;37953;52.806;18.270;2023-06-22T12:09:44;100905.09;;;25.85;66.87
51928;BME280;37953;52.806;18.270;2023-06-22T12:12:21;100905.72;;;25.90;64.75
51928;BME280;37953;52.806;18.270;2023-06-22T12:14:54;100903.69;;;25.95;63.25
51928;BME280;37953;52.806;18.270;2023-06-22T12:17:26;100890.28;;;25.97;67.95
51928;BME280;37953;52.806;18.270;2023-06-22T12:19:59;100889.09;;;26.03;68.28
51928;BME280;37953;52.806;18.270;2023-06-22T12:22:32;100888.84;;;26.07;67.31
51928;BME280;37953;52.806;18.270;2023-06-22T12:25:11;100892.13;;;26.12;67.13
51928;BME280;37953;52.806;18.270;2023-06-22T12:27:50;100899.84;;;26.17;65.74
51928;BME280;37953;52.806;18.270;2023-06-22T12:30:26;100890.91;;;26.18;62.02
51928;BME280;37953;52.806;18.270;2023-06-22T12:32:57;100889.78;;;26.22;63.62
51928;BME280;37953;52.806;18.270;2023-06-22T12:35:29;100894.19;;;26.23;59.73
51928;BME280;37953;52.806;18.270;2023-06-22T12:37:59;100887.72;;;26.27;59.43
51928;BME280;37953;52.806;18.270;2023-06-22T12:40:34;100892.03;;;26.30;55.42
51928;BME280;37953;52.806;18.270;2023-06-22T12:43:03;100885.50;;;26.35;58.44
51928;BME280;37953;52.806;18.270;2023-06-22T12:45:38;100893.38;;;26.37;57.63
51928;BME280;37953;52.806;18.270;2023-06-22T12:48:15;100886.84;;;26.43;60.06
51928;BME280;37953;52.806;18.270;2023-06-22T12:50:52;100878.69;;;26.46;58.64